Terminal Aerodrome Forecast
Issued by NWS Wakefield, VA

Home | Current Version | Previous Version | Text Only | Print | Product List | Glossary On
Versions: 1 2 3 4 5 6 7 8 9 10 11 12 13 14 15 16 17
000
FTUS41 KAKQ 302340
TAFRIC
TAF
KRIC 302340Z 0100/0124 20009KT P6SM SCT050 BKN200
     FM010300 22005KT P6SM BKN120
     FM011400 26008KT P6SM SCT250=

USA.gov is the U.S. government's official web portal to all federal, state and local government web resources and services.